Terminal Aerodrome Forecast
Issued by NWS

Home | Current Version | Previous Version | Text Only | Print | Product List | Glossary On
Versions: 1 2 3 4 5 6 7 8 9 10 11 12 13 14 15 16
026
FTUS43 KIND 241125
TAFLAF
TAF
KLAF 241125Z 2412/2512 20010KT P6SM BKN200 WS020/22045KT
     FM241400 21013G26KT P6SM BKN200
     FM242000 21017G26KT P6SM BKN025
     FM250000 20012KT P6SM BKN030
     FM250300 19009KT P6SM OVC020
     FM250500 18009KT P6SM VCSH OVC030
     FM250900 17008KT P6SM OVC050 WS020/19035KT
     FM251100 16007KT 6SM -SHRA OVC060 WS020/19050KT
      AMD LTD TO CLD VIS AND WIND TIL 241300=

USA.gov is the U.S. government's official web portal to all federal, state and local government web resources and services.